sensor_id;sensor_type;location;lat;lon;timestamp;pressure;altitude;pressure_sealevel;temperature;humidity
32197;BME280;18697;42.770;23.400;2023-07-31T00:00:24;95214.22;;;26.67;55.08
32197;BME280;18697;42.770;23.400;2023-07-31T00:02:50;95216.84;;;26.47;55.40
32197;BME280;18697;42.770;23.400;2023-07-31T00:05:16;95208.31;;;26.47;55.84
32197;BME280;18697;42.770;23.400;2023-07-31T00:07:41;95214.34;;;26.51;55.54
32197;BME280;18697;42.770;23.400;2023-07-31T00:10:07;95214.75;;;26.48;55.90
32197;BME280;18697;42.770;23.400;2023-07-31T00:12:32;95210.56;;;26.49;55.81
32197;BME280;18697;42.770;23.400;2023-07-31T00:14:58;95202.97;;;26.51;55.67
32197;BME280;18697;42.770;23.400;2023-07-31T00:17:23;95203.47;;;26.58;55.50
32197;BME280;18697;42.770;23.400;2023-07-31T00:19:49;95205.34;;;26.63;55.25
32197;BME280;18697;42.770;23.400;2023-07-31T00:22:16;95208.72;;;26.69;55.18
32197;BME280;18697;42.770;23.400;2023-07-31T00:24:41;95199.88;;;26.57;56.22
32197;BME280;18697;42.770;23.400;2023-07-31T00:27:06;95196.97;;;26.40;56.24
32197;BME280;18697;42.770;23.400;2023-07-31T00:29:32;95194.56;;;26.29;56.68
32197;BME280;18697;42.770;23.400;2023-07-31T00:31:57;95197.81;;;26.25;57.36
32197;BME280;18697;42.770;23.400;2023-07-31T00:34:22;95188.66;;;26.02;58.11
32197;BME280;18697;42.770;23.400;2023-07-31T00:36:48;95177.91;;;25.93;57.91
32197;BME280;18697;42.770;23.400;2023-07-31T00:39:13;95166.47;;;26.00;58.06
32197;BME280;18697;42.770;23.400;2023-07-31T00:41:39;95154.88;;;26.06;58.11
32197;BME280;18697;42.770;23.400;2023-07-31T00:44:04;95150.09;;;26.08;58.09
32197;BME280;18697;42.770;23.400;2023-07-31T00:46:29;95151.34;;;25.98;59.12
32197;BME280;18697;42.770;23.400;2023-07-31T00:48:55;95164.41;;;25.68;60.05
32197;BME280;18697;42.770;23.400;2023-07-31T00:51:21;95158.41;;;25.49;60.46
32197;BME280;18697;42.770;23.400;2023-07-31T00:53:47;95154.19;;;25.17;62.07
32197;BME280;18697;42.770;23.400;2023-07-31T00:56:12;95160.84;;;25.05;62.50
32197;BME280;18697;42.770;23.400;2023-07-31T00:58:38;95158.56;;;24.88;63.06
32197;BME280;18697;42.770;23.400;2023-07-31T01:01:04;95159.53;;;24.75;63.53
32197;BME280;18697;42.770;23.400;2023-07-31T01:03:30;95157.47;;;24.76;64.14
32197;BME280;18697;42.770;23.400;2023-07-31T01:08:51;95136.28;;;24.62;65.47
32197;BME280;18697;42.770;23.400;2023-07-31T01:11:25;95146.69;;;24.67;63.54
32197;BME280;18697;42.770;23.400;2023-07-31T01:13:53;95142.53;;;24.60;64.60
32197;BME280;18697;42.770;23.400;2023-07-31T01:16:19;95135.53;;;24.53;65.07
32197;BME280;18697;42.770;23.400;2023-07-31T01:18:44;95138.03;;;24.49;64.95
32197;BME280;18697;42.770;23.400;2023-07-31T01:21:27;95139.13;;;24.62;63.86
32197;BME280;18697;42.770;23.400;2023-07-31T01:26:53;95141.53;;;24.88;63.53
32197;BME280;18697;42.770;23.400;2023-07-31T01:29:29;95139.28;;;24.71;64.23
32197;BME280;18697;42.770;23.400;2023-07-31T01:32:01;95140.44;;;24.68;63.73
32197;BME280;18697;42.770;23.400;2023-07-31T01:34:27;95135.75;;;24.40;65.76
32197;BME280;18697;42.770;23.400;2023-07-31T01:36:53;95140.44;;;24.61;63.43
32197;BME280;18697;42.770;23.400;2023-07-31T01:39:20;95137.41;;;24.74;63.74
32197;BME280;18697;42.770;23.400;2023-07-31T01:41:45;95134.38;;;24.64;64.57
32197;BME280;18697;42.770;23.400;2023-07-31T01:44:11;95143.09;;;24.58;64.59
32197;BME280;18697;42.770;23.400;2023-07-31T01:46:36;95138.56;;;24.63;64.41
32197;BME280;18697;42.770;23.400;2023-07-31T01:49:02;95145.34;;;24.68;63.21
32197;BME280;18697;42.770;23.400;2023-07-31T01:51:28;95141.75;;;24.75;63.21
32197;BME280;18697;42.770;23.400;2023-07-31T01:53:53;95145.50;;;24.93;62.17
32197;BME280;18697;42.770;23.400;2023-07-31T01:56:18;95147.56;;;25.15;61.61
32197;BME280;18697;42.770;23.400;2023-07-31T01:58:44;95148.09;;;25.21;61.45
32197;BME280;18697;42.770;23.400;2023-07-31T02:01:09;95156.19;;;25.32;61.98
32197;BME280;18697;42.770;23.400;2023-07-31T02:03:34;95153.53;;;25.34;60.96
32197;BME280;18697;42.770;23.400;2023-07-31T02:06:00;95152.34;;;25.45;60.44
32197;BME280;18697;42.770;23.400;2023-07-31T02:08:25;95151.63;;;25.37;61.46
32197;BME280;18697;42.770;23.400;2023-07-31T02:10:51;95159.22;;;25.34;61.38
32197;BME280;18697;42.770;23.400;2023-07-31T02:13:17;95150.00;;;25.18;61.70
32197;BME280;18697;42.770;23.400;2023-07-31T02:15:42;95148.50;;;25.17;61.81
32197;BME280;18697;42.770;23.400;2023-07-31T02:18:07;95153.63;;;25.11;62.11
32197;BME280;18697;42.770;23.400;2023-07-31T02:20:34;95148.88;;;25.14;61.41
32197;BME280;18697;42.770;23.400;2023-07-31T02:23:00;95147.53;;;25.23;61.18
32197;BME280;18697;42.770;23.400;2023-07-31T02:25:25;95149.38;;;25.28;60.53
32197;BME280;18697;42.770;23.400;2023-07-31T02:27:51;95158.06;;;25.37;60.77
32197;BME280;18697;42.770;23.400;2023-07-31T02:30:16;95152.59;;;25.32;61.06
32197;BME280;18697;42.770;23.400;2023-07-31T02:32:41;95164.22;;;25.18;61.79
32197;BME280;18697;42.770;23.400;2023-07-31T02:35:07;95156.84;;;25.15;61.78
32197;BME280;18697;42.770;23.400;2023-07-31T02:37:34;95159.94;;;24.64;63.40
32197;BME280;18697;42.770;23.400;2023-07-31T02:39:59;95162.66;;;23.57;67.03
32197;BME280;18697;42.770;23.400;2023-07-31T02:42:24;95164.81;;;22.92;70.27
32197;BME280;18697;42.770;23.400;2023-07-31T02:44:50;95168.00;;;22.89;71.06
32197;BME280;18697;42.770;23.400;2023-07-31T02:47:20;95163.22;;;23.12;68.95
32197;BME280;18697;42.770;23.400;2023-07-31T02:49:46;95176.47;;;23.61;67.16
32197;BME280;18697;42.770;23.400;2023-07-31T02:52:11;95168.97;;;23.94;65.90
32197;BME280;18697;42.770;23.400;2023-07-31T02:54:37;95183.44;;;24.34;64.39
32197;BME280;18697;42.770;23.400;2023-07-31T02:57:02;95182.50;;;24.39;64.86
32197;BME280;18697;42.770;23.400;2023-07-31T02:59:28;95184.16;;;24.57;63.82
32197;BME280;18697;42.770;23.400;2023-07-31T03:01:53;95185.88;;;24.61;63.46
32197;BME280;18697;42.770;23.400;2023-07-31T03:04:19;95186.25;;;24.72;63.59
32197;BME280;18697;42.770;23.400;2023-07-31T03:06:44;95185.84;;;24.83;62.74
32197;BME280;18697;42.770;23.400;2023-07-31T03:09:10;95182.25;;;24.83;63.39
32197;BME280;18697;42.770;23.400;2023-07-31T03:11:35;95186.44;;;24.97;62.27
32197;BME280;18697;42.770;23.400;2023-07-31T03:14:01;95183.78;;;24.99;61.98
32197;BME280;18697;42.770;23.400;2023-07-31T03:16:26;95186.78;;;25.09;61.75
32197;BME280;18697;42.770;23.400;2023-07-31T03:18:51;95188.28;;;25.17;61.24
32197;BME280;18697;42.770;23.400;2023-07-31T03:21:17;95191.47;;;25.21;61.51
32197;BME280;18697;42.770;23.400;2023-07-31T03:23:42;95184.69;;;25.17;62.36
32197;BME280;18697;42.770;23.400;2023-07-31T03:26:08;95189.59;;;25.24;61.20
32197;BME280;18697;42.770;23.400;2023-07-31T03:28:34;95199.09;;;25.11;63.13
32197;BME280;18697;42.770;23.400;2023-07-31T03:31:00;95205.13;;;25.15;61.39
32197;BME280;18697;42.770;23.400;2023-07-31T03:33:25;95192.25;;;25.22;61.01
32197;BME280;18697;42.770;23.400;2023-07-31T03:35:51;95198.59;;;25.45;61.17
32197;BME280;18697;42.770;23.400;2023-07-31T03:38:16;95194.38;;;25.54;60.71
32197;BME280;18697;42.770;23.400;2023-07-31T03:40:42;95185.41;;;25.73;59.96
32197;BME280;18697;42.770;23.400;2023-07-31T03:43:07;95199.38;;;25.86;59.66
32197;BME280;18697;42.770;23.400;2023-07-31T03:45:33;95200.09;;;25.94;59.54
32197;BME280;18697;42.770;23.400;2023-07-31T03:47:58;95201.69;;;26.12;58.76
32197;BME280;18697;42.770;23.400;2023-07-31T03:50:23;95201.28;;;26.16;58.99
32197;BME280;18697;42.770;23.400;2023-07-31T03:52:50;95205.94;;;26.29;59.28
32197;BME280;18697;42.770;23.400;2023-07-31T03:55:15;95214.47;;;26.36;58.40
32197;BME280;18697;42.770;23.400;2023-07-31T03:57:41;95206.84;;;26.39;58.14
32197;BME280;18697;42.770;23.400;2023-07-31T04:00:07;95205.16;;;26.36;58.02
32197;BME280;18697;42.770;23.400;2023-07-31T04:02:32;95205.34;;;26.30;58.36
32197;BME280;18697;42.770;23.400;2023-07-31T04:04:58;95204.53;;;26.45;57.76
32197;BME280;18697;42.770;23.400;2023-07-31T04:07:23;95215.56;;;26.41;58.38
32197;BME280;18697;42.770;23.400;2023-07-31T04:09:49;95212.94;;;26.35;58.15
32197;BME280;18697;42.770;23.400;2023-07-31T04:12:14;95219.03;;;26.32;58.30
32197;BME280;18697;42.770;23.400;2023-07-31T04:14:39;95223.97;;;26.31;58.43
32197;BME280;18697;42.770;23.400;2023-07-31T04:17:05;95213.88;;;26.38;58.27
32197;BME280;18697;42.770;23.400;2023-07-31T04:19:30;95226.31;;;26.50;57.23
32197;BME280;18697;42.770;23.400;2023-07-31T04:21:56;95224.56;;;26.55;57.41
32197;BME280;18697;42.770;23.400;2023-07-31T04:24:21;95214.28;;;26.59;57.31
32197;BME280;18697;42.770;23.400;2023-07-31T04:26:52;95217.91;;;26.60;56.80
32197;BME280;18697;42.770;23.400;2023-07-31T04:29:18;95213.78;;;26.53;57.09
32197;BME280;18697;42.770;23.400;2023-07-31T04:31:44;95228.72;;;26.61;56.74
32197;BME280;18697;42.770;23.400;2023-07-31T04:34:09;95229.47;;;26.62;57.03
32197;BME280;18697;42.770;23.400;2023-07-31T04:36:34;95230.38;;;26.64;56.72
32197;BME280;18697;42.770;23.400;2023-07-31T04:39:00;95231.16;;;26.65;57.01
32197;BME280;18697;42.770;23.400;2023-07-31T04:41:26;95223.94;;;26.64;57.25
32197;BME280;18697;42.770;23.400;2023-07-31T04:43:51;95228.28;;;26.65;57.83
32197;BME280;18697;42.770;23.400;2023-07-31T04:46:17;95228.00;;;26.53;57.79
32197;BME280;18697;42.770;23.400;2023-07-31T04:48:42;95232.59;;;26.48;58.28
32197;BME280;18697;42.770;23.400;2023-07-31T04:51:08;95232.59;;;26.48;57.80
32197;BME280;18697;42.770;23.400;2023-07-31T04:53:34;95216.25;;;26.49;58.43
32197;BME280;18697;42.770;23.400;2023-07-31T04:56:00;95223.94;;;26.39;59.46
32197;BME280;18697;42.770;23.400;2023-07-31T04:58:25;95222.34;;;26.13;60.10
32197;BME280;18697;42.770;23.400;2023-07-31T05:00:51;95225.38;;;26.15;59.68
32197;BME280;18697;42.770;23.400;2023-07-31T05:03:16;95222.16;;;25.86;62.52
32197;BME280;18697;42.770;23.400;2023-07-31T05:05:41;95226.97;;;25.68;62.15
32197;BME280;18697;42.770;23.400;2023-07-31T05:08:07;95232.63;;;25.76;62.15
32197;BME280;18697;42.770;23.400;2023-07-31T05:10:32;95223.13;;;25.81;61.79
32197;BME280;18697;42.770;23.400;2023-07-31T05:12:58;95217.50;;;25.58;62.91
32197;BME280;18697;42.770;23.400;2023-07-31T05:15:23;95213.69;;;25.63;62.03
32197;BME280;18697;42.770;23.400;2023-07-31T05:17:48;95225.25;;;25.58;63.21
32197;BME280;18697;42.770;23.400;2023-07-31T05:20:14;95218.47;;;25.45;63.81
32197;BME280;18697;42.770;23.400;2023-07-31T05:22:40;95214.56;;;25.26;64.05
32197;BME280;18697;42.770;23.400;2023-07-31T05:25:05;95213.22;;;25.34;63.42
32197;BME280;18697;42.770;23.400;2023-07-31T05:27:31;95211.69;;;25.41;63.23
32197;BME280;18697;42.770;23.400;2023-07-31T05:29:57;95217.53;;;25.43;63.73
32197;BME280;18697;42.770;23.400;2023-07-31T05:32:23;95211.69;;;25.33;64.21
32197;BME280;18697;42.770;23.400;2023-07-31T05:34:51;95221.72;;;25.42;64.02
32197;BME280;18697;42.770;23.400;2023-07-31T05:37:17;95223.41;;;25.45;63.71
32197;BME280;18697;42.770;23.400;2023-07-31T05:39:43;95221.84;;;25.59;63.67
32197;BME280;18697;42.770;23.400;2023-07-31T05:42:08;95216.56;;;25.48;63.81
32197;BME280;18697;42.770;23.400;2023-07-31T05:44:34;95209.03;;;25.35;63.64
32197;BME280;18697;42.770;23.400;2023-07-31T05:46:59;95215.66;;;25.38;63.89
32197;BME280;18697;42.770;23.400;2023-07-31T05:49:25;95207.78;;;25.13;65.01
32197;BME280;18697;42.770;23.400;2023-07-31T05:51:50;95204.88;;;25.29;64.50
32197;BME280;18697;42.770;23.400;2023-07-31T05:54:15;95208.00;;;25.08;64.51
32197;BME280;18697;42.770;23.400;2023-07-31T05:56:41;95209.31;;;25.07;64.35
32197;BME280;18697;42.770;23.400;2023-07-31T05:59:06;95199.28;;;25.13;64.43
32197;BME280;18697;42.770;23.400;2023-07-31T06:01:31;95217.63;;;25.20;63.64
32197;BME280;18697;42.770;23.400;2023-07-31T06:03:57;95207.59;;;25.19;63.57
32197;BME280;18697;42.770;23.400;2023-07-31T06:06:22;95213.78;;;25.33;63.82
32197;BME280;18697;42.770;23.400;2023-07-31T06:08:47;95228.31;;;25.52;63.97
32197;BME280;18697;42.770;23.400;2023-07-31T06:11:13;95220.03;;;25.39;63.84
32197;BME280;18697;42.770;23.400;2023-07-31T06:13:38;95224.84;;;25.13;65.33
32197;BME280;18697;42.770;23.400;2023-07-31T06:16:04;95224.47;;;25.17;64.77
32197;BME280;18697;42.770;23.400;2023-07-31T06:18:34;95227.50;;;24.81;65.22
32197;BME280;18697;42.770;23.400;2023-07-31T06:20:59;95226.38;;;24.99;64.90
32197;BME280;18697;42.770;23.400;2023-07-31T06:23:24;95225.94;;;25.26;64.51
32197;BME280;18697;42.770;23.400;2023-07-31T06:25:50;95236.78;;;25.19;64.06
32197;BME280;18697;42.770;23.400;2023-07-31T06:28:15;95229.53;;;25.26;63.39
32197;BME280;18697;42.770;23.400;2023-07-31T06:30:40;95237.28;;;25.26;63.99
32197;BME280;18697;42.770;23.400;2023-07-31T06:33:06;95240.06;;;25.48;62.82
32197;BME280;18697;42.770;23.400;2023-07-31T06:35:31;95218.06;;;25.64;62.99
32197;BME280;18697;42.770;23.400;2023-07-31T06:37:57;95224.47;;;25.72;62.68
32197;BME280;18697;42.770;23.400;2023-07-31T06:40:22;95215.47;;;25.36;63.72
32197;BME280;18697;42.770;23.400;2023-07-31T06:42:48;95221.72;;;25.42;63.34
32197;BME280;18697;42.770;23.400;2023-07-31T06:45:13;95225.81;;;25.64;62.13
32197;BME280;18697;42.770;23.400;2023-07-31T06:47:38;95236.63;;;25.58;61.97
32197;BME280;18697;42.770;23.400;2023-07-31T06:50:05;95222.81;;;25.54;62.92
32197;BME280;18697;42.770;23.400;2023-07-31T06:52:30;95226.63;;;25.49;62.12
32197;BME280;18697;42.770;23.400;2023-07-31T06:55:18;95233.59;;;25.63;61.26
32197;BME280;18697;42.770;23.400;2023-07-31T06:57:44;95220.91;;;25.57;61.18
32197;BME280;18697;42.770;23.400;2023-07-31T07:00:10;95214.03;;;25.75;61.78
32197;BME280;18697;42.770;23.400;2023-07-31T07:02:35;95229.28;;;25.47;61.41
32197;BME280;18697;42.770;23.400;2023-07-31T07:05:01;95224.16;;;25.53;62.04
32197;BME280;18697;42.770;23.400;2023-07-31T07:07:26;95228.09;;;25.65;60.39
32197;BME280;18697;42.770;23.400;2023-07-31T07:09:52;95213.59;;;25.86;60.37
32197;BME280;18697;42.770;23.400;2023-07-31T07:12:17;95219.94;;;26.02;60.18
32197;BME280;18697;42.770;23.400;2023-07-31T07:14:42;95220.47;;;26.08;59.37
32197;BME280;18697;42.770;23.400;2023-07-31T07:17:08;95226.09;;;26.23;58.97
32197;BME280;18697;42.770;23.400;2023-07-31T07:19:34;95228.59;;;26.19;57.82
32197;BME280;18697;42.770;23.400;2023-07-31T07:21:59;95215.22;;;26.37;57.90
32197;BME280;18697;42.770;23.400;2023-07-31T07:24:27;95220.50;;;26.40;57.79
32197;BME280;18697;42.770;23.400;2023-07-31T07:26:52;95223.78;;;26.29;57.37
32197;BME280;18697;42.770;23.400;2023-07-31T07:29:17;95212.69;;;26.08;58.55
32197;BME280;18697;42.770;23.400;2023-07-31T07:31:43;95205.00;;;26.26;58.51
32197;BME280;18697;42.770;23.400;2023-07-31T07:34:08;95209.47;;;26.44;57.99
32197;BME280;18697;42.770;23.400;2023-07-31T07:36:33;95218.44;;;26.83;58.21
32197;BME280;18697;42.770;23.400;2023-07-31T07:38:59;95212.50;;;26.89;55.99
32197;BME280;18697;42.770;23.400;2023-07-31T07:41:24;95229.75;;;27.15;56.29
32197;BME280;18697;42.770;23.400;2023-07-31T07:43:49;95227.97;;;27.03;56.08
32197;BME280;18697;42.770;23.400;2023-07-31T07:46:16;95220.94;;;26.79;55.36
32197;BME280;18697;42.770;23.400;2023-07-31T07:48:41;95231.06;;;26.97;56.21
32197;BME280;18697;42.770;23.400;2023-07-31T07:51:07;95229.47;;;26.62;56.16
32197;BME280;18697;42.770;23.400;2023-07-31T07:53:32;95218.75;;;26.70;58.05
32197;BME280;18697;42.770;23.400;2023-07-31T07:55:57;95226.41;;;27.09;56.87
32197;BME280;18697;42.770;23.400;2023-07-31T07:58:23;95234.78;;;27.25;55.52
32197;BME280;18697;42.770;23.400;2023-07-31T08:00:51;95219.97;;;27.43;54.63
32197;BME280;18697;42.770;23.400;2023-07-31T08:03:17;95235.81;;;26.95;54.92
32197;BME280;18697;42.770;23.400;2023-07-31T08:05:43;95223.66;;;26.52;54.95
32197;BME280;18697;42.770;23.400;2023-07-31T08:08:16;95233.72;;;26.95;56.85
32197;BME280;18697;42.770;23.400;2023-07-31T08:10:42;95213.69;;;27.45;54.26
32197;BME280;18697;42.770;23.400;2023-07-31T08:13:07;95220.38;;;27.74;53.41
32197;BME280;18697;42.770;23.400;2023-07-31T08:15:33;95222.63;;;27.76;52.53
32197;BME280;18697;42.770;23.400;2023-07-31T08:17:58;95218.69;;;27.71;52.46
32197;BME280;18697;42.770;23.400;2023-07-31T08:20:24;95223.41;;;27.59;52.60
32197;BME280;18697;42.770;23.400;2023-07-31T08:22:49;95234.28;;;27.53;52.52
32197;BME280;18697;42.770;23.400;2023-07-31T08:25:14;95235.31;;;27.48;52.78
32197;BME280;18697;42.770;23.400;2023-07-31T08:27:43;95233.78;;;27.12;53.16
32197;BME280;18697;42.770;23.400;2023-07-31T08:30:09;95230.59;;;27.08;52.94
32197;BME280;18697;42.770;23.400;2023-07-31T08:32:34;95233.13;;;27.22;52.92
32197;BME280;18697;42.770;23.400;2023-07-31T08:35:00;95230.41;;;27.06;53.32
32197;BME280;18697;42.770;23.400;2023-07-31T08:37:25;95221.88;;;27.24;53.51
32197;BME280;18697;42.770;23.400;2023-07-31T08:39:50;95221.50;;;26.60;54.53
32197;BME280;18697;42.770;23.400;2023-07-31T08:42:16;95232.44;;;26.89;53.69
32197;BME280;18697;42.770;23.400;2023-07-31T08:44:43;95216.16;;;27.06;54.06
32197;BME280;18697;42.770;23.400;2023-07-31T08:47:09;95225.16;;;27.20;53.08
32197;BME280;18697;42.770;23.400;2023-07-31T08:49:34;95219.38;;;27.45;53.06
32197;BME280;18697;42.770;23.400;2023-07-31T08:52:01;95201.69;;;27.46;53.19
32197;BME280;18697;42.770;23.400;2023-07-31T08:54:27;95216.50;;;27.10;52.63
32197;BME280;18697;42.770;23.400;2023-07-31T08:56:56;95220.03;;;27.19;52.58
32197;BME280;18697;42.770;23.400;2023-07-31T08:59:23;95224.06;;;27.15;52.92
32197;BME280;18697;42.770;23.400;2023-07-31T09:01:50;95231.03;;;27.22;52.28
32197;BME280;18697;42.770;23.400;2023-07-31T09:04:19;95222.50;;;26.97;52.36
32197;BME280;18697;42.770;23.400;2023-07-31T09:06:45;95222.16;;;26.93;51.87
32197;BME280;18697;42.770;23.400;2023-07-31T09:09:13;95229.19;;;26.92;52.65
32197;BME280;18697;42.770;23.400;2023-07-31T09:11:39;95220.22;;;26.96;52.37
32197;BME280;18697;42.770;23.400;2023-07-31T09:14:05;95219.47;;;27.37;52.01
32197;BME280;18697;42.770;23.400;2023-07-31T09:16:34;95205.13;;;27.62;50.76
32197;BME280;18697;42.770;23.400;2023-07-31T09:19:00;95209.63;;;27.65;51.19
32197;BME280;18697;42.770;23.400;2023-07-31T09:21:27;95202.84;;;28.05;50.28
32197;BME280;18697;42.770;23.400;2023-07-31T09:23:53;95209.06;;;28.11;48.94
32197;BME280;18697;42.770;23.400;2023-07-31T09:26:33;95208.78;;;28.17;49.30
32197;BME280;18697;42.770;23.400;2023-07-31T09:29:00;95203.19;;;28.09;49.66
32197;BME280;18697;42.770;23.400;2023-07-31T09:31:42;95207.38;;;28.08;49.26
32197;BME280;18697;42.770;23.400;2023-07-31T09:34:08;95200.44;;;28.01;49.65
32197;BME280;18697;42.770;23.400;2023-07-31T09:36:40;95202.69;;;28.30;50.03
32197;BME280;18697;42.770;23.400;2023-07-31T09:39:09;95208.09;;;28.62;48.77
32197;BME280;18697;42.770;23.400;2023-07-31T09:41:47;95197.41;;;29.09;48.80
32197;BME280;18697;42.770;23.400;2023-07-31T09:44:13;95208.28;;;29.30;45.75
32197;BME280;18697;42.770;23.400;2023-07-31T09:46:39;95185.09;;;29.26;45.35
32197;BME280;18697;42.770;23.400;2023-07-31T09:49:09;95199.84;;;29.32;46.78
32197;BME280;18697;42.770;23.400;2023-07-31T09:51:35;95201.78;;;29.20;46.20
32197;BME280;18697;42.770;23.400;2023-07-31T09:56:36;95185.91;;;28.80;46.94
32197;BME280;18697;42.770;23.400;2023-07-31T09:59:04;95188.53;;;29.15;47.44
32197;BME280;18697;42.770;23.400;2023-07-31T10:01:30;95185.28;;;29.47;44.58
32197;BME280;18697;42.770;23.400;2023-07-31T10:03:57;95192.34;;;29.75;44.44
32197;BME280;18697;42.770;23.400;2023-07-31T10:06:24;95187.03;;;29.91;42.99
32197;BME280;18697;42.770;23.400;2023-07-31T10:08:51;95182.09;;;30.01;43.60
32197;BME280;18697;42.770;23.400;2023-07-31T10:11:18;95184.91;;;30.20;42.65
32197;BME280;18697;42.770;23.400;2023-07-31T10:13:45;95183.13;;;30.05;42.83
32197;BME280;18697;42.770;23.400;2023-07-31T10:16:12;95194.72;;;29.98;43.11
32197;BME280;18697;42.770;23.400;2023-07-31T10:18:38;95189.00;;;29.88;43.01
32197;BME280;18697;42.770;23.400;2023-07-31T10:21:05;95184.03;;;29.79;43.66
32197;BME280;18697;42.770;23.400;2023-07-31T10:23:31;95184.50;;;29.75;43.87
32197;BME280;18697;42.770;23.400;2023-07-31T10:25:57;95183.44;;;29.81;44.40
32197;BME280;18697;42.770;23.400;2023-07-31T10:28:24;95184.69;;;29.58;41.98
32197;BME280;18697;42.770;23.400;2023-07-31T10:30:50;95168.97;;;29.11;44.50
32197;BME280;18697;42.770;23.400;2023-07-31T10:33:17;95180.44;;;29.30;44.35
32197;BME280;18697;42.770;23.400;2023-07-31T10:35:43;95178.16;;;29.19;44.90
32197;BME280;18697;42.770;23.400;2023-07-31T10:38:12;95174.56;;;29.19;44.65
32197;BME280;18697;42.770;23.400;2023-07-31T10:40:37;95173.31;;;28.83;44.07
32197;BME280;18697;42.770;23.400;2023-07-31T10:43:03;95171.03;;;28.82;44.95
32197;BME280;18697;42.770;23.400;2023-07-31T10:45:39;95170.84;;;28.33;46.11
32197;BME280;18697;42.770;23.400;2023-07-31T10:48:17;95174.06;;;28.47;45.98
32197;BME280;18697;42.770;23.400;2023-07-31T10:50:55;95172.56;;;28.46;47.32
32197;BME280;18697;42.770;23.400;2023-07-31T10:53:25;95166.69;;;28.44;46.09
32197;BME280;18697;42.770;23.400;2023-07-31T10:55:51;95155.00;;;28.50;45.99
32197;BME280;18697;42.770;23.400;2023-07-31T10:58:19;95162.06;;;28.95;45.97
32197;BME280;18697;42.770;23.400;2023-07-31T11:00:46;95160.09;;;29.17;44.26
32197;BME280;18697;42.770;23.400;2023-07-31T11:03:16;95152.59;;;29.31;44.33
32197;BME280;18697;42.770;23.400;2023-07-31T11:06:01;95154.28;;;29.53;44.75
32197;BME280;18697;42.770;23.400;2023-07-31T11:08:32;95151.06;;;29.78;44.11
32197;BME280;18697;42.770;23.400;2023-07-31T11:13:44;95150.97;;;30.26;42.96
32197;BME280;18697;42.770;23.400;2023-07-31T11:16:11;95164.66;;;30.68;42.47
32197;BME280;18697;42.770;23.400;2023-07-31T11:18:40;95163.53;;;30.83;41.57
32197;BME280;18697;42.770;23.400;2023-07-31T11:21:06;95156.22;;;30.70;41.79
32197;BME280;18697;42.770;23.400;2023-07-31T11:23:31;95149.91;;;30.62;41.71
32197;BME280;18697;42.770;23.400;2023-07-31T11:26:00;95149.50;;;30.47;40.80
32197;BME280;18697;42.770;23.400;2023-07-31T11:28:31;95151.53;;;30.34;42.05
32197;BME280;18697;42.770;23.400;2023-07-31T11:30:57;95150.47;;;30.39;42.10
32197;BME280;18697;42.770;23.400;2023-07-31T11:33:23;95140.50;;;30.40;41.69
32197;BME280;18697;42.770;23.400;2023-07-31T11:35:48;95143.38;;;30.40;41.47
32197;BME280;18697;42.770;23.400;2023-07-31T11:38:30;95146.28;;;30.31;41.71
32197;BME280;18697;42.770;23.400;2023-07-31T11:40:58;95140.69;;;30.33;42.67
32197;BME280;18697;42.770;23.400;2023-07-31T11:43:24;95147.13;;;30.02;42.32
32197;BME280;18697;42.770;23.400;2023-07-31T11:45:51;95145.91;;;29.96;43.47
32197;BME280;18697;42.770;23.400;2023-07-31T11:50:46;95127.63;;;30.20;42.11
32197;BME280;18697;42.770;23.400;2023-07-31T11:53:13;95128.50;;;30.32;41.99
32197;BME280;18697;42.770;23.400;2023-07-31T11:55:39;95133.41;;;30.42;41.63
32197;BME280;18697;42.770;23.400;2023-07-31T11:58:04;95134.38;;;30.56;39.93
32197;BME280;18697;42.770;23.400;2023-07-31T12:00:30;95124.53;;;30.68;40.96
32197;BME280;18697;42.770;23.400;2023-07-31T12:02:56;95123.50;;;30.64;39.73
32197;BME280;18697;42.770;23.400;2023-07-31T12:05:22;95114.66;;;30.50;40.16
32197;BME280;18697;42.770;23.400;2023-07-31T12:07:53;95125.97;;;30.48;40.62
32197;BME280;18697;42.770;23.400;2023-07-31T12:10:30;95116.41;;;30.34;41.27
32197;BME280;18697;42.770;23.400;2023-07-31T12:13:03;95117.13;;;30.03;41.08
32197;BME280;18697;42.770;23.400;2023-07-31T12:15:31;95115.53;;;29.71;42.33
32197;BME280;18697;42.770;23.400;2023-07-31T12:17:57;95109.56;;;29.58;42.66
32197;BME280;18697;42.770;23.400;2023-07-31T12:20:23;95128.97;;;29.69;42.71
32197;BME280;18697;42.770;23.400;2023-07-31T12:22:48;95105.63;;;29.63;42.30
32197;BME280;18697;42.770;23.400;2023-07-31T12:25:17;95106.25;;;29.52;41.99
32197;BME280;18697;42.770;23.400;2023-07-31T12:27:45;95093.13;;;29.39;42.22
32197;BME280;18697;42.770;23.400;2023-07-31T12:30:32;95099.75;;;29.32;43.96
32197;BME280;18697;42.770;23.400;2023-07-31T12:33:06;95095.84;;;29.18;43.93
32197;BME280;18697;42.770;23.400;2023-07-31T12:35:38;95116.47;;;29.06;43.75
32197;BME280;18697;42.770;23.400;2023-07-31T12:38:05;95096.31;;;29.14;43.88
32197;BME280;18697;42.770;23.400;2023-07-31T12:40:31;95089.84;;;29.14;44.26
32197;BME280;18697;42.770;23.400;2023-07-31T12:42:56;95101.72;;;29.20;44.80
32197;BME280;18697;42.770;23.400;2023-07-31T12:45:22;95094.78;;;29.13;45.34
32197;BME280;18697;42.770;23.400;2023-07-31T12:47:48;95103.38;;;29.23;45.05
32197;BME280;18697;42.770;23.400;2023-07-31T12:50:14;95095.41;;;29.31;45.43
32197;BME280;18697;42.770;23.400;2023-07-31T12:52:39;95094.94;;;29.34;44.38
32197;BME280;18697;42.770;23.400;2023-07-31T12:55:04;95093.00;;;29.47;44.68
32197;BME280;18697;42.770;23.400;2023-07-31T12:57:30;95088.03;;;29.57;43.54
32197;BME280;18697;42.770;23.400;2023-07-31T12:59:56;95089.66;;;29.60;43.73